Time;durP1;ratioP1;P1;durP2;ratioP2;P2;SDS_P1;SDS_P2;PMS_P1;PMS_P2;Temp;Humidity;BMP_temperature;BMP_pressure;BME280_temperature;BME280_humidity;BME280_pressure;Samples;Min_cycle;Max_cycle;Signal;HPM_P1;HPM_P2
2022/06/13 00:01:33;;;;;;;;;;;19.80;99.90;;;19.35;62.88;95597.03;10475136;28;1858;-72
2022/06/13 00:06:36;;;;;;;;;;;19.90;99.90;;;19.45;62.50;95613.78;10474294;28;1914;-71
2022/06/13 00:11:38;;;;;;;;;;;20.00;99.90;;;19.70;62.12;95701.16;10473111;28;2132;-73
2022/06/13 00:16:42;;;;;;;;;;;20.20;99.90;;;18.47;85.03;95720.41;10477029;28;1889;-74
2022/06/13 00:21:46;;;;;;;;;;;19.90;99.90;;;16.74;100.00;95721.91;10478114;28;1813;-73
2022/06/13 00:26:49;;;;;;;;;;;18.20;99.90;;;16.39;100.00;95761.59;10474086;28;1906;-74
2022/06/13 00:31:51;;;;;;;;;;;17.30;99.90;;;16.25;100.00;95776.38;10478690;28;1837;-74
2022/06/13 00:36:54;;;;;;;;;;;17.00;99.90;;;16.11;100.00;95785.38;10479670;28;2027;-73
2022/06/13 00:41:57;;;;;;;;;;;16.90;99.90;;;16.06;100.00;95787.41;10484400;28;2105;-71
2022/06/13 00:47:01;;;;;;;;;;;16.80;99.90;;;16.11;100.00;95768.31;10471527;28;2343;-73
2022/06/13 00:52:03;;;;;;;;;;;16.70;99.90;;;16.00;100.00;95767.75;10484578;28;1915;-73
2022/06/13 00:57:07;;;;;;;;;;;16.70;99.90;;;16.11;100.00;95801.66;10480203;28;2110;-73
2022/06/13 01:02:10;;;;;;;;;;;16.70;99.90;;;16.22;100.00;95845.56;10480680;28;1878;-73
2022/06/13 01:07:13;;;;;;;;;;;16.80;99.90;;;16.26;100.00;95845.78;10484695;28;1914;-73
2022/06/13 01:12:17;;;;;;;;;;;17.00;99.90;;;16.21;100.00;95827.69;10467733;28;1873;-74
2022/06/13 01:17:24;;;;;;;;;;;16.80;99.90;;;16.13;100.00;95794.00;10481662;28;1895;-75
2022/06/13 01:22:28;;;;;;;;;;;16.80;99.90;;;16.09;100.00;95793.00;10480200;28;1912;-73
2022/06/13 01:27:32;;;;;;;;;;;16.70;99.90;;;16.10;100.00;95812.81;10482756;28;1969;-74
2022/06/13 01:32:37;;;;;;;;;;;16.70;99.90;;;16.10;100.00;95832.59;10476466;28;1887;-75
2022/06/13 01:37:43;;;;;;;;;;;16.80;99.90;;;16.11;100.00;95850.47;10480316;28;1963;-73
2022/06/13 01:42:46;;;;;;;;;;;16.70;99.90;;;16.11;100.00;95850.47;10474368;28;2744;-74
2022/06/13 01:47:49;;;;;;;;;;;16.70;99.90;;;16.18;100.00;95869.81;10476395;28;1947;-74
2022/06/13 01:52:52;;;;;;;;;;;16.80;99.90;;;16.08;100.00;95866.53;10478986;28;2030;-75
2022/06/13 01:57:55;;;;;;;;;;;16.90;99.90;;;15.89;100.00;95867.47;10477320;28;2060;-76
2022/06/13 02:02:57;;;;;;;;;;;16.60;99.90;;;15.80;100.00;95874.72;10473786;28;2203;-75
2022/06/13 02:08:01;;;;;;;;;;;16.50;99.90;;;15.72;100.00;95890.91;10479464;28;1977;-76
2022/06/13 02:13:22;;;;;;;;;;;16.40;99.90;;;15.74;100.00;95913.09;10475965;28;1948;-76
2022/06/13 02:18:25;;;;;;;;;;;16.40;99.90;;;15.72;100.00;95891.72;10486156;28;2005;-76
2022/06/13 02:23:28;;;;;;;;;;;16.30;99.90;;;15.57;100.00;95883.84;10489794;28;2036;-74
2022/06/13 02:28:31;;;;;;;;;;;16.20;99.90;;;15.73;100.00;95890.59;10477052;28;1974;-75
2022/06/13 02:33:34;;;;;;;;;;;16.30;99.90;;;15.70;100.00;95858.69;10478175;28;2021;-75
2022/06/13 02:38:37;;;;;;;;;;;16.40;99.90;;;15.83;100.00;95871.41;10475358;28;1932;-75
2022/06/13 02:43:40;;;;;;;;;;;16.40;99.90;;;15.92;100.00;95852.53;10478691;28;1950;-75
2022/06/13 02:48:43;;;;;;;;;;;16.60;99.90;;;16.04;100.00;95852.78;10477957;28;2029;-73
2022/06/13 02:53:46;;;;;;;;;;;16.60;99.90;;;16.11;100.00;95861.31;10476756;28;1970;-74
2022/06/13 02:58:49;;;;;;;;;;;16.70;99.90;;;16.14;100.00;95862.59;10507599;28;1982;-74
2022/06/13 03:03:52;;;;;;;;;;;16.70;99.90;;;16.22;100.00;95872.69;10498496;28;1584;-75
2022/06/13 03:08:55;;;;;;;;;;;16.80;99.90;;;16.32;100.00;95894.16;10477352;28;1973;-75
2022/06/13 03:13:58;;;;;;;;;;;16.90;99.90;;;16.28;100.00;95879.59;10474679;28;1959;-75
2022/06/13 03:19:02;;;;;;;;;;;17.00;99.90;;;16.35;100.00;95876.47;10478363;28;1990;-74
2022/06/13 03:24:05;;;;;;;;;;;16.90;99.90;;;16.30;100.00;95860.34;10480722;28;1895;-73
2022/06/13 03:29:08;;;;;;;;;;;16.90;99.90;;;16.25;100.00;95830.63;10480397;28;1983;-75
2022/06/13 03:34:11;;;;;;;;;;;16.90;99.90;;;16.16;100.00;95804.25;10480413;28;1464;-75
2022/06/13 03:39:15;;;;;;;;;;;16.80;99.90;;;16.12;100.00;95830.34;10478055;28;1967;-75
2022/06/13 03:44:18;;;;;;;;;;;16.80;99.90;;;16.12;100.00;95846.63;10476480;28;1852;-75
2022/06/13 03:49:22;;;;;;;;;;;16.70;99.90;;;16.13;100.00;95823.81;10475646;28;2101;-74
2022/06/13 03:54:25;;;;;;;;;;;16.70;99.90;;;16.24;100.00;95848.00;10477140;28;1934;-75
2022/06/13 03:59:28;;;;;;;;;;;16.80;99.90;;;16.27;100.00;95850.09;10477894;28;2081;-74
2022/06/13 04:04:31;;;;;;;;;;;16.90;99.90;;;16.31;100.00;95842.94;10478516;28;1994;-74
2022/06/13 04:09:34;;;;;;;;;;;16.90;99.90;;;16.39;100.00;95840.28;10474671;28;1910;-74
2022/06/13 04:14:37;;;;;;;;;;;17.00;99.90;;;16.41;100.00;95829.13;10473864;28;1506;-74
2022/06/13 04:19:40;;;;;;;;;;;17.00;99.90;;;16.53;100.00;95823.94;10474789;28;1843;-74
2022/06/13 04:24:43;;;;;;;;;;;17.00;99.90;;;16.49;100.00;95831.91;10478959;28;1963;-74
2022/06/13 04:29:46;;;;;;;;;;;17.00;99.90;;;16.51;100.00;95828.88;10478465;28;1986;-73
2022/06/13 04:34:49;;;;;;;;;;;17.20;99.90;;;16.49;100.00;95823.75;10471758;28;1857;-74
2022/06/13 04:39:52;;;;;;;;;;;17.10;99.90;;;16.57;100.00;95822.22;10475429;28;1899;-73
2022/06/13 04:44:55;;;;;;;;;;;17.20;99.90;;;16.56;100.00;95823.31;10472409;28;1860;-73
2022/06/13 04:50:04;;;;;;;;;;;17.20;99.90;;;16.67;100.00;95827.38;10473581;28;1917;-73
2022/06/13 04:55:08;;;;;;;;;;;17.20;99.90;;;16.83;100.00;95829.72;10471768;28;1843;-73
2022/06/13 05:00:10;;;;;;;;;;;17.30;99.90;;;16.94;100.00;95839.22;10472383;28;1825;-73
2022/06/13 05:05:14;;;;;;;;;;;17.40;99.90;;;16.99;100.00;95830.94;10473531;28;1830;-73
2022/06/13 05:10:16;;;;;;;;;;;17.50;99.90;;;17.03;100.00;95826.47;10471824;28;1886;-74
2022/06/13 05:15:19;;;;;;;;;;;17.60;99.90;;;17.05;100.00;95839.72;10470675;28;1930;-73
2022/06/13 05:20:22;;;;;;;;;;;17.60;99.90;;;16.93;100.00;95838.41;10478456;28;1756;-74
2022/06/13 05:25:25;;;;;;;;;;;17.60;99.90;;;16.73;100.00;95830.78;10479250;28;1948;-74
2022/06/13 05:30:28;;;;;;;;;;;17.50;99.90;;;16.57;100.00;95814.06;10482872;28;1755;-75
2022/06/13 05:35:31;;;;;;;;;;;17.30;99.90;;;16.58;100.00;95825.72;10477396;28;1837;-76
2022/06/13 05:40:34;;;;;;;;;;;17.20;99.90;;;16.74;100.00;95830.50;10478802;28;1852;-73
2022/06/13 05:45:38;;;;;;;;;;;17.30;99.90;;;16.91;100.00;95834.38;10476428;28;1910;-74
2022/06/13 05:50:41;;;;;;;;;;;17.40;99.90;;;17.55;100.00;95830.13;10477255;28;1832;-73
2022/06/13 05:55:44;;;;;;;;;;;17.70;99.90;;;18.43;100.00;95812.78;10477593;28;1898;-76
2022/06/13 06:00:47;;;;;;;;;;;18.40;99.90;;;18.42;100.00;95813.09;10494151;28;1776;-78
2022/06/13 06:05:51;;;;;;;;;;;18.70;99.90;;;18.48;100.00;95790.03;10474442;28;1983;-77
2022/06/13 06:10:53;;;;;;;;;;;18.80;99.90;;;18.86;100.00;95799.09;10473335;28;1865;-78
2022/06/13 06:15:57;;;;;;;;;;;19.10;99.90;;;18.95;100.00;95803.69;10472865;28;2004;-76
2022/06/13 06:21:00;;;;;;;;;;;19.40;99.90;;;19.34;100.00;95791.66;10474179;28;1839;-77
2022/06/13 06:26:04;;;;;;;;;;;19.60;99.90;;;19.17;100.00;95792.56;10473945;28;2044;-77
2022/06/13 06:31:07;;;;;;;;;;;19.60;99.90;;;19.75;100.00;95796.44;10493970;28;1831;-78
2022/06/13 06:36:10;;;;;;;;;;;19.90;99.90;;;20.63;100.00;95797.31;10480652;28;1811;-76
2022/06/13 06:41:13;;;;;;;;;;;20.50;99.90;;;20.69;100.00;95812.34;10474966;28;1842;-75
2022/06/13 06:46:15;;;;;;;;;;;21.00;99.90;;;20.00;100.00;95812.94;10466618;28;1947;-76
2022/06/13 06:51:18;;;;;;;;;;;20.80;99.90;;;19.76;100.00;95814.38;10473305;28;1814;-73
2022/06/13 07:01:42;;;;;;;;;;;20.30;99.90;;;19.63;100.00;95820.88;10473878;28;1855;-73
2022/06/13 07:06:45;;;;;;;;;;;20.20;99.90;;;19.37;100.00;95812.81;10494771;28;1906;-72
2022/06/13 07:11:54;;;;;;;;;;;20.00;99.90;;;19.29;100.00;95822.66;10483194;28;1778;-73
2022/06/13 07:16:57;;;;;;;;;;;20.00;99.90;;;19.55;100.00;95821.72;10486520;28;2003;-72
2022/06/13 07:22:00;;;;;;;;;;;19.90;99.90;;;19.80;100.00;95836.34;10474486;28;2172;-72
2022/06/13 07:27:03;;;;;;;;;;;20.10;99.90;;;19.56;100.00;95837.72;10471006;28;1977;-72
2022/06/13 07:32:06;;;;;;;;;;;20.10;99.90;;;19.74;100.00;95833.03;10465639;28;1893;-73
2022/06/13 07:37:09;;;;;;;;;;;20.10;99.90;;;20.06;100.00;95828.00;10468809;28;1850;-72
2022/06/13 07:42:12;;;;;;;;;;;20.40;99.90;;;20.37;100.00;95836.56;10469634;28;1829;-73
2022/06/13 07:47:15;;;;;;;;;;;20.50;99.90;;;20.00;100.00;95834.78;10471636;28;1934;-73
2022/06/13 07:52:18;;;;;;;;;;;20.50;99.90;;;20.14;100.00;95833.38;10470885;28;1971;-73
2022/06/13 07:57:21;;;;;;;;;;;20.40;99.90;;;20.88;98.00;95839.16;10465727;28;1748;-73
2022/06/13 08:02:24;;;;;;;;;;;20.90;99.90;;;20.14;98.37;95851.66;10463147;28;2220;-73
2022/06/13 08:07:27;;;;;;;;;;;20.80;99.90;;;19.95;100.00;95846.66;10472414;28;2008;-74
2022/06/13 08:12:30;;;;;;;;;;;20.50;99.90;;;20.15;98.30;95853.25;10479807;28;1802;-74
2022/06/13 08:17:33;;;;;;;;;;;20.40;99.90;;;20.76;96.66;95851.63;10470958;28;1992;-77
2022/06/13 08:22:36;;;;;;;;;;;20.90;99.90;;;20.73;94.54;95856.97;10482502;28;1858;-75
2022/06/13 08:27:39;;;;;;;;;;;21.10;99.90;;;20.39;91.62;95858.84;10468992;28;2151;-75
2022/06/13 08:32:42;;;;;;;;;;;21.10;99.90;;;20.31;88.42;95865.19;10469919;28;1817;-75
2022/06/13 08:37:46;;;;;;;;;;;20.90;99.90;;;20.50;86.49;95871.00;10467941;28;1891;-75
2022/06/13 08:42:49;;;;;;;;;;;21.00;99.90;;;20.13;85.77;95871.91;10470313;28;1842;-73
2022/06/13 08:47:52;;;;;;;;;;;20.90;99.90;;;20.44;80.94;95872.31;10467408;28;1927;-75
2022/06/13 08:52:55;;;;;;;;;;;20.90;99.90;;;20.70;78.56;95874.84;10466947;28;1971;-74
2022/06/13 08:57:58;;;;;;;;;;;21.00;99.90;;;20.87;71.94;95881.28;10474992;28;1800;-74
2022/06/13 09:03:01;;;;;;;;;;;21.20;99.90;;;20.74;69.41;95875.78;10477019;28;1794;-75
2022/06/13 09:08:05;;;;;;;;;;;21.30;99.90;;;20.93;65.70;95877.16;10475168;28;1910;-74
2022/06/13 09:13:09;;;;;;;;;;;21.40;99.90;;;21.04;64.40;95892.81;10477396;28;1865;-75
2022/06/13 09:18:12;;;;;;;;;;;21.50;99.90;;;21.16;60.04;95896.72;10473134;28;1801;-77
2022/06/13 09:23:15;;;;;;;;;;;21.80;99.90;;;21.45;60.99;95893.06;10471780;28;1906;-75
2022/06/13 09:28:18;;;;;;;;;;;21.80;99.90;;;21.76;57.73;95897.97;10474312;28;1909;-75
2022/06/13 09:33:21;;;;;;;;;;;22.40;99.90;;;21.95;56.22;95900.94;10478329;28;1850;-74
2022/06/13 09:38:24;;;;;;;;;;;22.40;99.90;;;21.96;57.18;95905.25;10473873;28;1889;-75
2022/06/13 09:43:29;;;;;;;;;;;22.60;99.90;;;22.00;57.19;95908.09;10476680;28;1872;-76
2022/06/13 09:48:32;;;;;;;;;;;22.60;99.90;;;22.39;57.48;95903.84;10476787;28;1981;-74
2022/06/13 09:53:35;;;;;;;;;;;22.70;99.90;;;22.52;54.52;95894.47;10474318;28;1822;-74
2022/06/13 09:58:40;;;;;;;;;;;23.00;99.90;;;21.83;56.84;95914.63;10471858;28;1858;-76
2022/06/13 10:03:43;;;;;;;;;;;22.90;99.90;;;21.51;56.33;95903.44;10470820;28;1873;-75
2022/06/13 10:08:46;;;;;;;;;;;22.20;99.90;;;21.48;58.18;95898.63;10470926;28;1914;-75
2022/06/13 10:13:52;;;;;;;;;;;22.40;99.90;;;21.98;57.78;95911.19;10469910;28;1835;-76
2022/06/13 10:18:56;;;;;;;;;;;22.50;99.90;;;21.73;57.73;95909.59;10474552;28;1849;-75
2022/06/13 10:23:59;;;;;;;;;;;22.50;99.90;;;21.02;55.98;95903.28;10471593;28;1952;-74
2022/06/13 10:29:03;;;;;;;;;;;21.80;99.90;;;21.88;53.15;95906.16;10470789;28;1973;-75
2022/06/13 10:34:06;;;;;;;;;;;22.30;99.90;;;22.16;53.53;95900.81;10474067;28;1856;-75
2022/06/13 10:39:09;;;;;;;;;;;22.70;99.90;;;23.00;51.37;95905.59;10472555;28;1806;-75
2022/06/13 10:44:12;;;;;;;;;;;23.40;99.90;;;23.93;47.42;95908.81;10472302;28;1867;-76
2022/06/13 10:49:16;;;;;;;;;;;24.60;99.90;;;23.80;48.50;95910.06;10469243;28;1915;-76
2022/06/13 10:54:19;;;;;;;;;;;24.70;99.90;;;22.47;50.51;95915.81;10473458;28;1821;-76
2022/06/13 10:59:22;;;;;;;;;;;24.60;99.90;;;21.94;48.84;95925.88;10469882;28;1961;-75
2022/06/13 11:04:25;;;;;;;;;;;23.20;99.90;;;22.72;47.89;95933.00;10474818;28;1780;-73
2022/06/13 11:09:28;;;;;;;;;;;23.80;99.90;;;22.79;46.30;95930.44;10474421;28;1984;-74
2022/06/13 11:14:32;;;;;;;;;;;24.60;99.90;;;22.63;44.97;95925.69;10483109;28;1891;-73
2022/06/13 11:24:57;;;;;;;;;;;23.70;99.90;;;22.13;46.85;95915.19;10461633;28;1903;-75
2022/06/13 11:30:01;;;;;;;;;;;23.50;99.90;;;22.09;45.64;95920.56;10475217;28;1922;-73
2022/06/13 11:35:05;;;;;;;;;;;23.40;99.90;;;22.41;45.56;95928.16;10467534;28;1823;-75
2022/06/13 11:40:07;;;;;;;;;;;23.10;99.90;;;22.35;47.39;95922.13;10463641;28;1865;-74
2022/06/13 11:45:11;;;;;;;;;;;23.10;99.90;;;22.61;45.08;95917.03;10452784;28;1823;-74
2022/06/13 11:50:13;;;;;;;;;;;23.30;99.90;;;22.75;45.27;95921.31;10455969;28;1910;-73
2022/06/13 11:55:18;;;;;;;;;;;23.40;99.90;;;22.30;47.62;95894.97;10465398;28;1882;-74
2022/06/13 12:00:22;;;;;;;;;;;23.10;99.90;;;21.73;46.12;95912.31;10452909;28;1792;-75
2022/06/13 12:05:27;;;;;;;;;;;22.70;99.90;;;22.45;44.06;95912.59;10466025;28;1953;-76
2022/06/13 12:10:30;;;;;;;;;;;22.90;99.90;;;23.05;44.95;95913.56;10465385;28;1983;-75
2022/06/13 12:15:34;;;;;;;;;;;23.40;99.90;;;23.45;42.28;95910.72;10468210;28;1821;-74
2022/06/13 12:20:37;;;;;;;;;;;24.00;99.90;;;24.25;39.50;95899.34;10476171;28;1830;-75
2022/06/13 12:25:40;;;;;;;;;;;24.60;99.90;;;24.18;38.67;95903.88;10466212;28;1875;-72
2022/06/13 12:30:45;;;;;;;;;;;24.80;99.90;;;23.53;40.35;95906.19;10473129;28;1898;-72
2022/06/13 12:35:49;;;;;;;;;;;24.80;99.90;;;23.52;40.03;95907.34;10473083;28;2010;-71
2022/06/13 12:40:51;;;;;;;;;;;24.30;99.90;;;23.30;41.16;95917.78;10475714;28;1822;-72
2022/06/13 12:45:55;;;;;;;;;;;24.10;99.90;;;22.86;41.37;95919.69;10478170;28;1839;-71
2022/06/13 12:50:58;;;;;;;;;;;23.90;99.90;;;22.60;41.89;95920.91;10477366;28;1910;-73
2022/06/13 12:56:00;;;;;;;;;;;23.40;99.90;;;23.00;40.28;95920.09;10475324;28;1776;-72
2022/06/13 13:01:04;;;;;;;;;;;23.60;99.90;;;23.54;39.98;95919.59;10478173;28;1948;-73
2022/06/13 13:06:07;;;;;;;;;;;23.90;99.90;;;23.42;38.41;95911.44;10475957;28;1790;-72
2022/06/13 13:11:10;;;;;;;;;;;24.10;99.90;;;23.55;38.92;95918.44;10469954;28;1973;-71
2022/06/13 13:16:14;;;;;;;;;;;24.10;99.90;;;24.03;36.21;95913.72;10473931;28;1924;-72
2022/06/13 13:21:17;;;;;;;;;;;24.50;99.90;;;24.40;35.67;95916.16;10469578;28;1825;-72
2022/06/13 13:26:20;;;;;;;;;;;24.80;99.90;;;23.44;36.00;95925.59;10471399;28;2075;-72
2022/06/13 13:31:24;;;;;;;;;;;24.60;99.90;;;23.52;36.92;95929.31;10470502;28;1930;-72
2022/06/13 13:36:26;;;;;;;;;;;24.30;99.90;;;24.08;36.72;95927.19;10476211;28;1549;-73
2022/06/13 13:41:30;;;;;;;;;;;24.60;99.90;;;24.34;34.34;95942.31;10472603;28;1800;-72
2022/06/13 13:46:33;;;;;;;;;;;25.10;99.90;;;24.47;33.58;95927.31;10473346;28;1766;-71
2022/06/13 13:51:36;;;;;;;;;;;25.10;99.50;;;24.21;33.71;95947.09;10473584;28;1910;-72
2022/06/13 13:56:44;;;;;;;;;;;25.00;97.40;;;24.35;32.17;95927.44;10468218;28;1827;-71
2022/06/13 14:01:48;;;;;;;;;;;24.90;95.90;;;24.87;32.07;95943.47;10484260;28;1894;-71
2022/06/13 14:06:51;;;;;;;;;;;25.30;94.80;;;24.26;32.32;95950.38;10471612;28;1915;-71
2022/06/13 14:11:54;;;;;;;;;;;25.20;93.50;;;23.78;33.78;95946.06;10481129;28;1922;-72
2022/06/13 14:16:57;;;;;;;;;;;24.90;94.10;;;23.87;32.71;95935.72;10470310;28;1859;-72
2022/06/13 14:22:00;;;;;;;;;;;24.80;93.10;;;24.08;34.10;95942.88;10471915;28;1941;-72
2022/06/13 14:27:04;;;;;;;;;;;24.90;94.40;;;24.00;34.43;95947.41;10465302;28;2232;-72
2022/06/13 14:32:07;;;;;;;;;;;24.80;94.40;;;24.53;33.85;95936.88;10471438;28;1972;-73
2022/06/13 14:37:12;;;;;;;;;;;25.10;94.40;;;23.93;35.02;95952.72;10469240;28;1732;-72
2022/06/13 14:42:16;;;;;;;;;;;24.90;94.40;;;22.61;36.83;95944.41;10479554;28;1878;-73
2022/06/13 14:47:19;;;;;;;;;;;24.10;94.50;;;23.18;36.04;95962.53;10473728;28;1809;-73
2022/06/13 14:52:22;;;;;;;;;;;23.80;95.60;;;23.44;35.51;95953.81;10474932;28;1987;-73
2022/06/13 14:57:25;;;;;;;;;;;24.10;95.00;;;23.38;35.94;95954.41;10463357;28;1786;-73
2022/06/13 15:02:28;;;;;;;;;;;24.20;95.00;;;23.73;35.20;95935.38;10472025;28;1862;-72
2022/06/13 15:07:35;;;;;;;;;;;24.50;93.90;;;23.82;34.44;95943.44;10473583;28;1851;-73
2022/06/13 15:12:44;;;;;;;;;;;24.60;93.50;;;23.69;34.16;95949.00;10478261;28;1910;-72
2022/06/13 15:17:47;;;;;;;;;;;24.80;92.10;;;23.24;35.98;95949.34;10466017;28;2121;-72
2022/06/13 15:22:51;;;;;;;;;;;24.10;93.50;;;23.11;35.48;95962.31;10485785;28;1828;-72
2022/06/13 15:27:55;;;;;;;;;;;24.20;93.00;;;23.01;36.24;95945.56;10477266;28;1561;-72
2022/06/13 15:32:57;;;;;;;;;;;23.90;93.50;;;23.03;35.82;95955.06;10472176;28;1981;-73
2022/06/13 15:38:00;;;;;;;;;;;23.80;92.80;;;22.05;36.84;95955.19;10470494;28;1893;-73
2022/06/13 15:43:03;;;;;;;;;;;23.20;92.60;;;22.38;37.16;95952.34;10472996;28;2031;-73
2022/06/13 15:48:06;;;;;;;;;;;22.90;94.20;;;22.95;34.73;95958.72;10463286;28;1893;-73
2022/06/13 15:53:09;;;;;;;;;;;23.40;92.70;;;22.99;35.10;95948.66;10462665;28;1891;-73
2022/06/13 15:58:11;;;;;;;;;;;23.60;91.80;;;22.33;36.38;95957.25;10467786;28;1829;-73
2022/06/13 16:03:15;;;;;;;;;;;23.50;91.80;;;21.91;36.16;95943.78;10465506;28;1877;-73
2022/06/13 16:08:17;;;;;;;;;;;22.80;91.30;;;21.64;35.82;95947.22;10467818;28;1984;-73
2022/06/13 16:13:20;;;;;;;;;;;22.70;90.80;;;21.49;36.18;95949.44;10469027;28;2025;-73
2022/06/13 16:18:23;;;;;;;;;;;22.50;91.10;;;21.44;36.66;95957.88;10469944;28;2104;-74
2022/06/13 16:23:26;;;;;;;;;;;22.40;91.20;;;20.87;37.79;95961.31;10461250;28;1907;-74
2022/06/13 16:28:29;;;;;;;;;;;22.00;91.90;;;20.77;37.52;95951.56;10460985;28;2001;-73
2022/06/13 16:33:32;;;;;;;;;;;21.80;92.20;;;20.92;37.92;95941.94;10469637;28;1796;-73
2022/06/13 16:38:35;;;;;;;;;;;21.70;93.10;;;20.85;36.76;95960.81;10474379;28;1786;-72
2022/06/13 16:43:38;;;;;;;;;;;21.70;91.50;;;20.73;37.29;95955.31;10472954;28;1877;-72
2022/06/13 16:48:41;;;;;;;;;;;21.60;92.00;;;20.69;37.31;95957.13;10467006;28;1922;-74
2022/06/13 16:53:44;;;;;;;;;;;21.50;91.80;;;20.67;36.67;95968.34;10468992;28;1820;-73
2022/06/13 16:58:47;;;;;;;;;;;21.40;91.00;;;20.30;36.72;95963.81;10462254;28;1865;-73
2022/06/13 17:03:50;;;;;;;;;;;21.20;90.30;;;20.29;38.19;95954.78;10456945;28;1830;-74
2022/06/13 17:08:53;;;;;;;;;;;21.10;92.30;;;20.13;37.88;95970.94;10465898;28;1922;-73
2022/06/13 17:13:57;;;;;;;;;;;21.00;91.80;;;20.00;38.66;95966.53;10471715;28;1967;-73
2022/06/13 17:19:02;;;;;;;;;;;20.90;92.50;;;20.17;38.69;95971.09;10476123;28;1900;-73
2022/06/13 17:24:06;;;;;;;;;;;21.00;93.10;;;20.02;38.37;95979.84;10476674;28;2006;-74
2022/06/13 17:34:57;;;;;;;;;;;20.60;90.60;;;19.64;37.25;95980.63;10395804;28;1825;-75
2022/06/13 17:40:01;;;;;;;;;;;20.50;90.70;;;19.60;36.91;95993.34;10471761;28;1853;-74
2022/06/13 17:45:04;;;;;;;;;;;20.40;90.00;;;19.56;37.14;95990.44;10475944;28;1844;-73
2022/06/13 17:50:07;;;;;;;;;;;20.30;90.40;;;19.67;36.91;95993.63;10476799;28;1993;-74
2022/06/13 17:55:11;;;;;;;;;;;20.40;90.10;;;19.73;36.22;95997.78;10472999;28;1847;-75
2022/06/13 18:00:14;;;;;;;;;;;20.40;89.40;;;19.66;36.56;96001.03;10477867;28;1973;-73
2022/06/13 18:05:17;;;;;;;;;;;20.50;89.70;;;19.74;36.42;96002.09;10475920;28;1794;-73
2022/06/13 18:10:20;;;;;;;;;;;20.40;89.60;;;19.81;37.09;96002.41;10471762;28;1969;-74
2022/06/13 18:15:24;;;;;;;;;;;20.50;90.60;;;19.74;37.27;96007.56;10485112;28;1790;-74
2022/06/13 18:20:28;;;;;;;;;;;20.50;90.20;;;19.67;37.53;96012.72;10480043;28;1693;-73
2022/06/13 18:25:31;;;;;;;;;;;20.40;90.60;;;19.58;37.26;96022.84;10475865;28;1748;-73
2022/06/13 18:30:34;;;;;;;;;;;20.30;90.00;;;19.58;37.46;96020.13;10471361;28;1975;-72
2022/06/13 18:35:37;;;;;;;;;;;20.30;90.40;;;19.34;38.19;96016.00;10492035;28;1765;-71
2022/06/13 18:40:40;;;;;;;;;;;20.20;90.90;;;19.15;39.16;96019.06;10466849;28;1849;-75
2022/06/13 18:45:43;;;;;;;;;;;20.00;91.80;;;18.98;39.71;96023.72;10468325;28;1828;-74
2022/06/13 18:50:46;;;;;;;;;;;19.90;92.20;;;18.99;39.93;96022.59;10475556;28;1969;-74
2022/06/13 18:55:50;;;;;;;;;;;19.80;92.80;;;18.81;40.74;96030.75;10477719;28;1870;-75
2022/06/13 19:00:53;;;;;;;;;;;19.70;93.60;;;18.67;41.37;96034.75;10480768;28;1854;-74
2022/06/13 19:05:56;;;;;;;;;;;19.60;94.20;;;18.64;41.32;96036.16;10474730;28;1955;-74
2022/06/13 19:10:59;;;;;;;;;;;19.50;94.40;;;18.49;41.67;96050.22;10473963;28;1914;-73
2022/06/13 19:16:02;;;;;;;;;;;19.40;94.70;;;18.42;42.12;96039.00;10474010;28;1829;-74
2022/06/13 19:21:05;;;;;;;;;;;19.30;95.30;;;18.23;42.69;96053.69;10475097;28;1869;-75
2022/06/13 19:26:09;;;;;;;;;;;19.20;95.50;;;18.09;43.44;96051.06;10473711;28;1861;-74
2022/06/13 19:31:12;;;;;;;;;;;19.00;96.30;;;17.87;43.63;96055.75;10488672;28;1951;-73
2022/06/13 19:36:15;;;;;;;;;;;18.90;96.60;;;17.73;44.59;96067.53;10472168;28;1721;-75
2022/06/13 19:41:18;;;;;;;;;;;18.60;97.70;;;17.68;44.73;96075.00;10473263;28;1780;-72
2022/06/13 19:46:21;;;;;;;;;;;18.60;97.90;;;17.69;45.08;96077.41;10471507;28;1790;-72
2022/06/13 19:51:24;;;;;;;;;;;18.60;98.20;;;17.55;45.46;96072.03;10472923;28;1979;-72
2022/06/13 19:56:28;;;;;;;;;;;18.60;98.50;;;17.48;45.35;96079.03;10460066;28;1764;-71
2022/06/13 20:01:31;;;;;;;;;;;18.40;98.50;;;17.36;46.25;96074.16;10470715;28;1846;-73
2022/06/13 20:12:03;;;;;;;;;;;18.30;99.10;;;17.15;47.09;96079.28;10466928;28;1977;-73
2022/06/13 20:17:09;;;;;;;;;;;18.20;99.90;;;17.19;47.17;96091.16;10469563;28;1806;-73
2022/06/13 20:22:12;;;;;;;;;;;18.10;99.90;;;17.18;47.31;96084.13;10468753;28;2303;-73
2022/06/13 20:27:15;;;;;;;;;;;18.00;99.90;;;17.13;47.17;96092.38;10469206;28;1820;-73
2022/06/13 20:32:18;;;;;;;;;;;18.10;99.90;;;17.02;47.82;96097.22;10470874;28;2048;-73
2022/06/13 20:37:22;;;;;;;;;;;18.00;99.90;;;16.96;48.12;96098.47;10472231;28;1847;-73
2022/06/13 20:42:24;;;;;;;;;;;18.00;99.90;;;16.88;48.15;96096.47;10466938;28;1770;-72
2022/06/13 20:47:28;;;;;;;;;;;17.80;99.90;;;16.89;48.68;96097.28;10468518;28;1838;-74
2022/06/13 20:52:30;;;;;;;;;;;17.80;99.90;;;16.83;48.07;96101.22;10474635;28;1983;-73
2022/06/13 20:57:33;;;;;;;;;;;17.80;99.90;;;16.89;48.20;96102.72;10475747;28;1973;-74
2022/06/13 21:02:37;;;;;;;;;;;17.80;99.90;;;16.98;48.53;96106.28;10481556;28;2577;-73
2022/06/13 21:07:40;;;;;;;;;;;17.80;99.90;;;16.93;48.96;96087.41;10477174;28;1713;-73
2022/06/13 21:12:43;;;;;;;;;;;17.70;99.90;;;16.95;48.82;96099.56;10472404;28;1922;-73
2022/06/13 21:17:45;;;;;;;;;;;17.80;99.90;;;16.96;48.73;96097.66;10479038;28;1802;-73
2022/06/13 21:22:48;;;;;;;;;;;17.80;99.90;;;17.03;48.85;96108.91;10476064;28;1804;-73
2022/06/13 21:27:51;;;;;;;;;;;17.80;99.90;;;16.98;49.11;96098.94;10479748;28;1851;-72
2022/06/13 21:32:54;;;;;;;;;;;17.80;99.90;;;17.00;49.35;96098.66;10475283;28;1914;-73
2022/06/13 21:37:58;;;;;;;;;;;17.80;99.90;;;16.92;48.74;96094.75;10476067;28;1870;-72
2022/06/13 21:43:00;;;;;;;;;;;17.80;99.90;;;16.85;50.04;96098.97;10482965;28;1791;-75
2022/06/13 21:48:03;;;;;;;;;;;17.70;99.90;;;16.91;49.68;96105.91;10480367;28;1795;-73
2022/06/13 21:53:06;;;;;;;;;;;17.70;99.90;;;16.82;49.20;96091.47;10473444;28;1935;-72
2022/06/13 21:58:09;;;;;;;;;;;17.70;99.90;;;16.79;51.20;96097.50;10469663;28;2285;-75
2022/06/13 22:03:12;;;;;;;;;;;17.60;99.90;;;16.67;51.30;96096.09;10473579;28;1945;-73
2022/06/13 22:08:17;;;;;;;;;;;17.60;99.90;;;16.73;50.39;96094.91;10475168;28;1784;-73
2022/06/13 22:13:19;;;;;;;;;;;17.60;99.90;;;16.74;49.33;96104.66;10473363;28;1993;-73
2022/06/13 22:18:22;;;;;;;;;;;17.50;99.90;;;16.72;50.56;96106.03;10476662;28;1815;-72
2022/06/13 22:23:26;;;;;;;;;;;17.50;99.90;;;16.68;50.07;96116.69;10486427;28;1785;-73
2022/06/13 22:28:29;;;;;;;;;;;17.50;99.90;;;16.56;51.40;96113.69;10472348;28;1826;-73
2022/06/13 22:33:32;;;;;;;;;;;17.50;99.90;;;16.41;50.00;96109.41;10474230;28;1906;-74
2022/06/13 22:38:35;;;;;;;;;;;17.40;99.90;;;16.31;51.93;96125.06;10477165;28;1866;-72
2022/06/13 22:43:39;;;;;;;;;;;17.20;99.90;;;16.14;53.71;96121.03;10481292;28;1865;-72
2022/06/13 22:54:04;;;;;;;;;;;17.00;99.90;;;15.90;53.97;96123.94;10473106;28;1914;-72
2022/06/13 22:59:07;;;;;;;;;;;16.90;99.90;;;15.74;55.12;96121.78;10471999;28;1877;-73
2022/06/13 23:04:09;;;;;;;;;;;16.80;99.90;;;15.59;56.46;96120.91;10473216;28;1871;-72
2022/06/13 23:09:12;;;;;;;;;;;16.60;99.90;;;15.43;58.03;96119.53;10475961;28;1803;-73
2022/06/13 23:14:15;;;;;;;;;;;16.50;99.90;;;15.38;58.48;96117.72;10468716;28;1984;-72
2022/06/13 23:19:18;;;;;;;;;;;16.40;99.90;;;15.30;58.68;96117.59;10474374;28;1804;-73
2022/06/13 23:24:22;;;;;;;;;;;16.40;99.90;;;15.09;60.47;96117.91;10474383;28;1844;-72
2022/06/13 23:29:24;;;;;;;;;;;16.20;99.90;;;15.03;62.41;96126.41;10473212;28;1821;-71
2022/06/13 23:34:27;;;;;;;;;;;16.10;99.90;;;14.95;63.21;96125.16;10489820;28;1918;-72